createdAt,value
2023-02-01T00:01:22.399Z,7.27
2023-02-01T00:03:50.438Z,7.10
2023-02-01T00:06:18.496Z,6.77
2023-02-01T00:08:46.549Z,6.60
2023-02-01T00:11:15.106Z,5.90
2023-02-01T00:13:44.305Z,5.17
2023-02-01T00:16:17.303Z,5.10
2023-02-01T00:18:45.788Z,5.40
2023-02-01T00:21:14.433Z,5.30
2023-02-01T00:23:42.911Z,5.20
2023-02-01T00:26:17.229Z,4.70
2023-02-01T00:28:45.534Z,5.60
2023-02-01T00:31:16.052Z,5.20
2023-02-01T00:33:44.497Z,5.37
2023-02-01T00:36:12.932Z,6.20
2023-02-01T00:38:41.470Z,6.20
2023-02-01T00:41:12.994Z,5.77
2023-02-01T00:43:41.493Z,6.93
2023-02-01T00:46:10.342Z,6.63
2023-02-01T00:48:40.432Z,8.23
2023-02-01T00:51:10.887Z,7.53
2023-02-01T00:53:39.856Z,7.90
2023-02-01T00:56:08.853Z,7.40
2023-02-01T00:58:37.189Z,7.93
2023-02-01T01:01:07.895Z,8.07
2023-02-01T01:03:38.307Z,7.27
2023-02-01T01:06:10.264Z,7.33
2023-02-01T01:08:39.352Z,7.67
2023-02-01T01:11:08.957Z,7.50
2023-02-01T01:13:38.021Z,7.17
2023-02-01T01:16:07.495Z,7.07
2023-02-01T01:18:37.328Z,7.97
2023-02-01T01:21:08.549Z,7.30
2023-02-01T01:23:37.078Z,7.57
2023-02-01T01:26:08.431Z,7.63
2023-02-01T01:28:37.131Z,7.87
2023-02-01T01:31:09.978Z,7.43
2023-02-01T01:33:38.655Z,7.97
2023-02-01T01:36:11.250Z,8.07
2023-02-01T01:38:40.408Z,7.87
2023-02-01T01:41:09.568Z,8.27
2023-02-01T01:43:56.700Z,7.43
2023-02-01T01:46:27.632Z,7.60
2023-02-01T01:49:02.738Z,7.23
2023-02-01T01:51:35.084Z,6.53
2023-02-01T01:54:07.482Z,5.80
2023-02-01T01:56:37.283Z,5.27
2023-02-01T01:59:07.136Z,5.30
2023-02-01T02:01:35.579Z,5.13
2023-02-01T02:04:04.645Z,4.37
2023-02-01T02:06:43.290Z,4.27
2023-02-01T02:09:11.375Z,4.10
2023-02-01T02:11:39.707Z,4.40
2023-02-01T02:14:11.236Z,4.67
2023-02-01T02:17:04.699Z,4.10
2023-02-01T02:19:57.828Z,4.90
2023-02-01T02:23:01.925Z,4.07
2023-02-01T02:25:54.603Z,4.10
2023-02-01T02:28:58.362Z,3.83
2023-02-01T02:31:45.190Z,3.37
2023-02-01T02:34:23.820Z,3.50
2023-02-01T02:37:03.665Z,3.37
2023-02-01T02:39:46.686Z,3.50
2023-02-01T02:42:35.373Z,3.20
2023-02-01T02:45:27.493Z,3.33
2023-02-01T02:48:04.892Z,3.60
2023-02-01T02:50:56.107Z,3.40
2023-02-01T02:53:47.858Z,3.13
2023-02-01T02:56:35.187Z,3.40
2023-02-01T02:59:23.105Z,3.60
2023-02-01T03:02:09.233Z,3.70
2023-02-01T03:04:37.263Z,3.40
2023-02-01T03:07:16.998Z,3.10
2023-02-01T03:09:49.640Z,3.30
2023-02-01T03:12:35.838Z,3.53
2023-02-01T03:15:13.637Z,3.87
2023-02-01T03:17:45.410Z,3.67
2023-02-01T03:20:16.687Z,3.90
2023-02-01T03:22:47.241Z,3.50
2023-02-01T03:25:20.060Z,4.07
2023-02-01T03:27:53.945Z,4.00
2023-02-01T03:30:25.056Z,3.57
2023-02-01T03:33:02.189Z,3.60
2023-02-01T03:35:34.669Z,3.70
2023-02-01T03:38:11.143Z,3.43
2023-02-01T03:40:41.700Z,3.63
2023-02-01T03:43:13.164Z,3.30
2023-02-01T03:45:45.684Z,4.00
2023-02-01T03:48:16.343Z,2.83
2023-02-01T03:50:50.469Z,3.40
2023-02-01T03:53:23.591Z,3.80
2023-02-01T03:55:53.408Z,3.30
2023-02-01T03:58:23.620Z,3.63
2023-02-01T04:00:55.103Z,4.37
2023-02-01T04:03:23.882Z,4.27
2023-02-01T04:05:52.404Z,4.20
2023-02-01T04:08:22.468Z,5.10
2023-02-01T04:10:50.469Z,4.50
2023-02-01T04:13:18.500Z,5.77
2023-02-01T04:15:46.777Z,6.33
2023-02-01T04:18:14.799Z,7.67
2023-02-01T04:20:44.220Z,5.60
2023-02-01T04:23:12.248Z,7.63
2023-02-01T04:25:41.757Z,6.00
2023-02-01T04:28:10.123Z,7.10
2023-02-01T04:30:38.223Z,5.93
2023-02-01T04:33:07.375Z,6.43
2023-02-01T04:35:35.652Z,6.23
2023-02-01T04:38:03.701Z,6.40
2023-02-01T04:40:31.720Z,5.80
2023-02-01T04:43:02.300Z,6.00
2023-02-01T04:45:30.299Z,6.60
2023-02-01T04:47:58.506Z,5.37
2023-02-01T04:50:26.593Z,5.77
2023-02-01T04:52:54.650Z,6.23
2023-02-01T04:55:22.683Z,6.03
2023-02-01T04:57:50.714Z,5.27
2023-02-01T05:00:21.195Z,5.50
2023-02-01T05:02:49.433Z,5.40
2023-02-01T05:05:17.491Z,5.93
2023-02-01T05:07:45.539Z,5.77
2023-02-01T05:10:13.552Z,5.93
2023-02-01T05:12:59.031Z,5.67
2023-02-01T05:15:28.470Z,5.00
2023-02-01T05:17:56.584Z,5.70
2023-02-01T05:20:24.907Z,4.70
2023-02-01T05:22:53.384Z,5.33
2023-02-01T05:25:21.430Z,5.10
2023-02-01T05:27:49.699Z,4.70
2023-02-01T05:30:18.235Z,5.80
2023-02-01T05:32:47.631Z,4.97
2023-02-01T05:35:15.813Z,4.67
2023-02-01T05:37:43.856Z,5.80
2023-02-01T05:40:13.151Z,5.40
2023-02-01T05:42:41.199Z,5.50
2023-02-01T05:45:10.459Z,5.27
2023-02-01T05:47:38.684Z,5.63
2023-02-01T05:50:09.401Z,5.60
2023-02-01T05:52:37.439Z,5.40
2023-02-01T05:55:14.991Z,5.37
2023-02-01T05:57:43.059Z,5.97
2023-02-01T06:00:12.388Z,5.53
2023-02-01T06:02:40.572Z,6.90
2023-02-01T06:05:10.728Z,5.27
2023-02-01T06:07:38.772Z,5.47
2023-02-01T06:10:07.650Z,5.50
2023-02-01T06:12:35.705Z,5.80
2023-02-01T06:15:03.737Z,5.20
2023-02-01T06:17:31.867Z,4.73
2023-02-01T06:19:59.875Z,5.10
2023-02-01T06:22:29.279Z,5.13
2023-02-01T06:24:57.312Z,5.10
2023-02-01T06:27:25.344Z,4.87
2023-02-01T06:29:53.451Z,5.57
2023-02-01T06:32:21.476Z,6.30
2023-02-01T06:34:49.502Z,5.03
2023-02-01T06:37:17.706Z,5.23
2023-02-01T06:39:47.896Z,4.47
2023-02-01T06:42:15.933Z,4.47
2023-02-01T06:44:44.596Z,4.77
2023-02-01T06:47:12.673Z,4.80
2023-02-01T06:49:41.453Z,4.50
2023-02-01T06:52:09.529Z,5.13
2023-02-01T06:54:38.450Z,4.30
2023-02-01T06:57:07.964Z,4.30
2023-02-01T06:59:36.065Z,4.17
2023-02-01T07:02:04.107Z,4.80
2023-02-01T07:04:32.371Z,4.30
2023-02-01T07:07:00.405Z,3.53
2023-02-01T07:09:28.515Z,3.90
2023-02-01T07:11:56.557Z,4.00
2023-02-01T07:14:25.922Z,4.13
2023-02-01T07:16:53.947Z,3.90
2023-02-01T07:19:21.970Z,3.80
2023-02-01T07:21:49.990Z,3.83
2023-02-01T07:24:18.031Z,3.33
2023-02-01T07:26:46.180Z,3.97
2023-02-01T07:29:14.206Z,4.07
2023-02-01T07:31:43.595Z,3.40
2023-02-01T07:34:11.638Z,3.77
2023-02-01T07:36:39.703Z,3.60
2023-02-01T07:39:07.898Z,4.20
2023-02-01T07:41:35.914Z,3.83
2023-02-01T07:44:04.013Z,3.70
2023-02-01T07:46:32.042Z,4.63
2023-02-01T07:49:01.563Z,4.27
2023-02-01T07:51:29.699Z,3.83
2023-02-01T07:53:57.842Z,3.70
2023-02-01T07:56:29.769Z,4.43
2023-02-01T07:58:58.308Z,3.27
2023-02-01T08:01:27.908Z,3.20
2023-02-01T08:03:57.807Z,3.60
2023-02-01T08:06:27.536Z,3.80
2023-02-01T08:08:56.238Z,4.17
2023-02-01T08:11:25.809Z,4.27
2023-02-01T08:13:54.605Z,3.70
2023-02-01T08:16:24.051Z,3.80
2023-02-01T08:18:52.870Z,4.20
2023-02-01T08:21:23.207Z,3.63
2023-02-01T08:23:52.917Z,3.43
2023-02-01T08:26:23.182Z,3.73
2023-02-01T08:28:53.101Z,3.47
2023-02-01T08:31:23.927Z,5.37
2023-02-01T08:33:54.518Z,4.33
2023-02-01T08:36:23.335Z,3.87
2023-02-01T08:38:53.053Z,4.93
2023-02-01T08:41:23.093Z,3.37
2023-02-01T08:43:51.485Z,7.93
2023-02-01T08:46:19.797Z,4.70
2023-02-01T08:48:48.813Z,3.33
2023-02-01T08:51:19.464Z,4.77
2023-02-01T08:53:48.209Z,7.90
2023-02-01T08:56:19.071Z,15.70
2023-02-01T08:58:47.264Z,8.80
2023-02-01T09:01:17.843Z,3.50
2023-02-01T09:03:46.602Z,3.80
2023-02-01T09:06:16.889Z,5.10
2023-02-01T09:08:45.319Z,3.70
2023-02-01T09:11:15.325Z,3.33
2023-02-01T09:13:44.791Z,4.23
2023-02-01T09:16:13.366Z,3.33
2023-02-01T09:18:50.595Z,3.90
2023-02-01T09:21:24.640Z,2.90
2023-02-01T09:23:53.499Z,3.57
2023-02-01T09:26:26.453Z,3.93
2023-02-01T09:29:00.166Z,3.60
2023-02-01T09:31:28.442Z,3.93
2023-02-01T09:33:56.587Z,3.00
2023-02-01T09:36:24.969Z,3.00
2023-02-01T09:38:53.899Z,3.10
2023-02-01T09:41:34.623Z,3.27
2023-02-01T09:44:15.116Z,3.73
2023-02-01T09:46:43.242Z,4.03
2023-02-01T09:49:16.130Z,3.33
2023-02-01T09:51:47.690Z,4.10
2023-02-01T09:54:19.249Z,3.60
2023-02-01T09:56:51.941Z,3.77
2023-02-01T09:59:33.821Z,3.80
2023-02-01T10:02:03.887Z,3.43
2023-02-01T10:04:34.427Z,3.93
2023-02-01T10:07:19.147Z,3.27
2023-02-01T10:09:59.914Z,3.13
2023-02-01T10:12:54.106Z,2.83
2023-02-01T10:15:32.676Z,3.00
2023-02-01T10:18:15.704Z,3.60
2023-02-01T10:20:54.756Z,4.07
2023-02-01T10:23:40.422Z,3.43
2023-02-01T10:26:19.613Z,3.63
2023-02-01T10:28:51.827Z,3.67
2023-02-01T10:31:25.956Z,3.40
2023-02-01T10:33:59.055Z,3.70
2023-02-01T10:36:32.945Z,3.37
2023-02-01T10:39:01.673Z,3.33
2023-02-01T10:41:35.007Z,3.30
2023-02-01T10:44:05.398Z,4.07
2023-02-01T10:46:36.437Z,3.93
2023-02-01T10:49:07.600Z,3.43
2023-02-01T10:51:44.172Z,4.13
2023-02-01T10:54:17.159Z,3.50
2023-02-01T10:56:47.532Z,3.20
2023-02-01T10:59:19.828Z,3.97
2023-02-01T11:01:51.351Z,3.70
2023-02-01T11:04:21.308Z,3.47
2023-02-01T11:06:51.365Z,3.47
2023-02-01T11:09:25.689Z,4.00
2023-02-01T11:11:59.300Z,3.83
2023-02-01T11:14:37.462Z,3.33
2023-02-01T11:17:24.876Z,4.07
2023-02-01T11:20:00.250Z,2.83
2023-02-01T11:22:30.661Z,3.60
2023-02-01T11:25:00.218Z,3.70
2023-02-01T11:27:28.632Z,3.30
2023-02-01T11:30:02.598Z,3.93
2023-02-01T11:32:33.246Z,3.87
2023-02-01T11:35:05.851Z,3.93
2023-02-01T11:37:37.873Z,5.10
2023-02-01T11:40:27.364Z,8.13
2023-02-01T11:42:57.566Z,7.20
2023-02-01T11:45:29.102Z,6.57
2023-02-01T11:48:01.361Z,3.97
2023-02-01T11:50:42.755Z,4.27
2023-02-01T11:53:37.043Z,3.97
2023-02-01T11:56:15.265Z,4.80
2023-02-01T11:59:07.038Z,3.70
2023-02-01T12:01:59.837Z,3.80
2023-02-01T12:05:07.966Z,4.17
2023-02-01T12:07:54.100Z,5.80
2023-02-01T12:10:34.281Z,4.13
2023-02-01T12:13:11.539Z,3.00
2023-02-01T12:15:53.313Z,4.13
2023-02-01T12:18:57.005Z,3.63
2023-02-01T12:21:38.283Z,3.60
2023-02-01T12:24:29.425Z,3.83
2023-02-01T12:27:12.788Z,3.43
2023-02-01T12:30:12.694Z,2.90
2023-02-01T12:32:53.569Z,3.40
2023-02-01T12:35:40.733Z,3.17
2023-02-01T12:38:22.685Z,3.87
2023-02-01T12:41:05.500Z,3.37
2023-02-01T12:43:41.710Z,3.93
2023-02-01T12:46:14.337Z,3.43
2023-02-01T12:48:50.560Z,3.40
2023-02-01T12:51:22.301Z,3.40
2023-02-01T12:53:54.897Z,3.13
2023-02-01T12:56:29.064Z,3.00
2023-02-01T12:59:02.050Z,3.90
2023-02-01T13:01:35.793Z,3.23
2023-02-01T13:04:10.641Z,3.93
2023-02-01T13:06:44.353Z,4.70
2023-02-01T13:09:21.684Z,3.10
2023-02-01T13:11:54.202Z,3.37
2023-02-01T13:14:31.753Z,3.23
2023-02-01T13:17:04.306Z,4.23
2023-02-01T13:19:47.345Z,2.83
2023-02-01T13:22:21.838Z,2.90
2023-02-01T13:24:53.175Z,3.63
2023-02-01T13:27:23.391Z,2.87
2023-02-01T13:29:58.194Z,2.30
2023-02-01T13:32:57.091Z,3.20
2023-02-01T13:35:43.169Z,3.17
2023-02-01T13:38:36.588Z,2.90
2023-02-01T13:41:18.009Z,3.67
2023-02-01T13:43:51.113Z,2.73
2023-02-01T13:46:19.889Z,2.97
2023-02-01T13:48:52.222Z,3.00
2023-02-01T13:51:39.218Z,3.20
2023-02-01T13:54:07.968Z,2.90
2023-02-01T13:56:44.357Z,2.90
2023-02-01T13:59:55.775Z,3.20
2023-02-01T14:03:16.935Z,3.03
2023-02-01T14:06:18.561Z,2.87
2023-02-01T14:09:07.647Z,3.50
2023-02-01T14:11:42.390Z,3.13
2023-02-01T14:14:47.137Z,2.70
2023-02-01T14:17:42.292Z,3.00
2023-02-01T14:20:55.818Z,2.67
2023-02-01T14:23:28.796Z,2.87
2023-02-01T14:26:16.005Z,2.63
2023-02-01T14:28:48.740Z,3.20
2023-02-01T14:31:35.445Z,3.07
2023-02-01T14:34:12.369Z,2.63
2023-02-01T14:36:47.707Z,2.20
2023-02-01T14:39:33.812Z,2.77
2023-02-01T14:42:06.563Z,2.77
2023-02-01T14:44:38.984Z,2.60
2023-02-01T14:47:32.931Z,2.70
2023-02-01T14:50:27.022Z,2.80
2023-02-01T14:53:06.944Z,3.23
2023-02-01T14:55:41.035Z,2.60
2023-02-01T14:58:21.437Z,3.10
2023-02-01T15:00:53.159Z,2.43
2023-02-01T15:03:45.044Z,3.00
2023-02-01T15:06:26.176Z,2.77
2023-02-01T15:08:57.886Z,2.43
2023-02-01T15:11:27.706Z,3.53
2023-02-01T15:13:57.289Z,2.63
2023-02-01T15:16:27.290Z,2.67
2023-02-01T15:19:12.428Z,2.53
2023-02-01T15:21:48.649Z,2.57
2023-02-01T15:24:21.605Z,2.93
2023-02-01T15:26:51.550Z,2.53
2023-02-01T15:29:20.596Z,2.53
2023-02-01T15:31:50.775Z,2.80
2023-02-01T15:34:19.769Z,2.57
2023-02-01T15:37:02.048Z,2.30
2023-02-01T15:39:32.803Z,2.60
2023-02-01T15:42:12.196Z,2.57
2023-02-01T15:44:43.620Z,2.57
2023-02-01T15:47:17.744Z,2.00
2023-02-01T15:49:49.123Z,2.50
2023-02-01T15:52:26.092Z,2.77
2023-02-01T15:54:57.127Z,2.30
2023-02-01T15:57:32.430Z,2.60
2023-02-01T16:00:02.535Z,2.57
2023-02-01T16:02:36.411Z,2.47
2023-02-01T16:05:06.056Z,2.33
2023-02-01T16:07:36.174Z,2.37
2023-02-01T16:10:29.585Z,2.07
2023-02-01T16:13:01.154Z,3.00
2023-02-01T16:15:30.477Z,3.13
2023-02-01T16:17:58.711Z,2.30
2023-02-01T16:20:26.798Z,3.00
2023-02-01T16:22:54.819Z,3.23
2023-02-01T16:25:23.175Z,2.97
2023-02-01T16:27:51.427Z,2.70
2023-02-01T16:30:24.092Z,3.17
2023-02-01T16:32:55.907Z,2.70
2023-02-01T16:35:26.559Z,2.90
2023-02-01T16:37:54.964Z,2.80
2023-02-01T16:40:23.876Z,2.43
2023-02-01T16:42:53.649Z,2.83
2023-02-01T16:45:23.992Z,2.97
2023-02-01T16:47:56.250Z,3.17
2023-02-01T16:50:27.166Z,3.37
2023-02-01T16:52:55.312Z,2.43
2023-02-01T16:55:24.389Z,2.60
2023-02-01T16:57:52.676Z,2.77
2023-02-01T17:00:24.856Z,2.60
2023-02-01T17:02:53.785Z,2.60
2023-02-01T17:05:23.102Z,2.63
2023-02-01T17:07:52.233Z,2.30
2023-02-01T17:10:39.622Z,2.80
2023-02-01T17:13:10.428Z,3.30
2023-02-01T17:15:39.939Z,2.70
2023-02-01T17:18:11.724Z,3.10
2023-02-01T17:20:39.747Z,2.23
2023-02-01T17:23:08.838Z,2.70
2023-02-01T17:25:36.938Z,3.33
2023-02-01T17:28:05.256Z,2.67
2023-02-01T17:30:34.065Z,2.30
2023-02-01T17:33:13.210Z,3.33
2023-02-01T17:35:49.060Z,3.20
2023-02-01T17:38:17.859Z,2.30
2023-02-01T17:40:45.937Z,2.47
2023-02-01T17:43:18.235Z,3.23
2023-02-01T17:45:52.672Z,2.90
2023-02-01T17:48:22.948Z,3.30
2023-02-01T17:50:54.733Z,2.50
2023-02-01T17:53:24.646Z,3.00
2023-02-01T17:55:53.581Z,2.50
2023-02-01T17:58:22.800Z,2.70
2023-02-01T18:00:51.590Z,2.77
2023-02-01T18:03:26.444Z,2.20
2023-02-01T18:05:55.526Z,3.00
2023-02-01T18:08:24.658Z,2.47
2023-02-01T18:10:55.429Z,2.57
2023-02-01T18:13:23.781Z,2.90
2023-02-01T18:15:51.848Z,2.70
2023-02-01T18:18:19.908Z,2.87
2023-02-01T18:20:50.468Z,2.60
2023-02-01T18:23:21.286Z,2.50
2023-02-01T18:25:49.925Z,2.63
2023-02-01T18:28:18.215Z,3.00
2023-02-01T18:30:49.067Z,2.83
2023-02-01T18:33:19.053Z,3.33
2023-02-01T18:35:47.172Z,3.17
2023-02-01T18:38:16.889Z,3.37
2023-02-01T18:40:50.870Z,3.03
2023-02-01T18:43:19.099Z,2.97
2023-02-01T18:45:48.511Z,3.53
2023-02-01T18:48:19.469Z,2.80
2023-02-01T18:50:47.982Z,3.07
2023-02-01T18:53:20.023Z,3.10
2023-02-01T18:55:48.796Z,3.50
2023-02-01T18:58:18.583Z,3.53
2023-02-01T19:00:48.236Z,3.80
2023-02-01T19:03:18.614Z,2.77
2023-02-01T19:05:48.247Z,3.13
2023-02-01T19:08:17.666Z,3.10
2023-02-01T19:10:45.989Z,3.17
2023-02-01T19:13:14.573Z,2.83
2023-02-01T19:15:43.829Z,3.03
2023-02-01T19:18:12.004Z,4.13
2023-02-01T19:20:45.509Z,4.07
2023-02-01T19:23:13.960Z,2.40
2023-02-01T19:25:46.951Z,2.83
2023-02-01T19:28:15.697Z,3.30
2023-02-01T19:30:44.897Z,2.77
2023-02-01T19:33:13.269Z,3.13
2023-02-01T19:35:41.355Z,3.57
2023-02-01T19:38:09.974Z,3.17
2023-02-01T19:40:38.490Z,3.20
2023-02-01T19:43:07.945Z,3.03
2023-02-01T19:45:36.045Z,3.00
2023-02-01T19:48:07.437Z,3.60
2023-02-01T19:50:35.649Z,4.20
2023-02-01T19:53:03.734Z,3.93
2023-02-01T19:55:32.179Z,3.87
2023-02-01T19:58:02.405Z,5.93
2023-02-01T20:00:31.105Z,3.23
2023-02-01T20:02:59.526Z,3.60
2023-02-01T20:05:27.653Z,3.67
2023-02-01T20:07:55.734Z,3.40
2023-02-01T20:10:23.936Z,4.53
2023-02-01T20:12:52.097Z,3.87
2023-02-01T20:15:22.063Z,6.43
2023-02-01T20:17:51.791Z,3.70
2023-02-01T20:20:20.148Z,4.13
2023-02-01T20:22:48.241Z,6.50
2023-02-01T20:25:16.466Z,4.30
2023-02-01T20:27:45.387Z,5.00
2023-02-01T20:30:19.902Z,3.27
2023-02-01T20:32:49.562Z,4.03
2023-02-01T20:35:19.853Z,3.53
2023-02-01T20:37:49.086Z,3.90
2023-02-01T20:40:17.820Z,9.13
2023-02-01T20:42:45.926Z,4.60
2023-02-01T20:45:14.058Z,5.50
2023-02-01T20:47:43.363Z,3.20
2023-02-01T20:50:12.671Z,2.73
2023-02-01T20:52:42.123Z,3.17
2023-02-01T20:55:10.626Z,2.93
2023-02-01T20:57:38.743Z,3.50
2023-02-01T21:00:10.154Z,5.37
2023-02-01T21:02:38.378Z,3.33
2023-02-01T21:05:07.273Z,3.77
2023-02-01T21:07:35.351Z,4.20
2023-02-01T21:10:05.242Z,3.00
2023-02-01T21:12:33.465Z,3.83
2023-02-01T21:15:01.540Z,3.83
2023-02-01T21:17:31.673Z,4.70
2023-02-01T21:20:00.165Z,2.77
2023-02-01T21:22:28.267Z,3.93
2023-02-01T21:24:56.288Z,3.63
2023-02-01T21:27:25.804Z,3.40
2023-02-01T21:29:53.886Z,2.67
2023-02-01T21:32:21.978Z,4.20
2023-02-01T21:34:50.155Z,4.07
2023-02-01T21:37:18.225Z,3.07
2023-02-01T21:39:46.561Z,2.63
2023-02-01T21:42:13.687Z,2.43
2023-02-01T21:44:46.135Z,3.60
2023-02-01T21:47:17.250Z,2.67
2023-02-01T21:49:46.391Z,3.57
2023-02-01T21:52:15.806Z,2.80
2023-02-01T21:54:44.226Z,2.90
2023-02-01T21:57:13.427Z,2.73
2023-02-01T21:59:44.178Z,2.70
2023-02-01T22:02:15.214Z,2.97
2023-02-01T22:04:43.317Z,3.10
2023-02-01T22:07:12.238Z,2.90
2023-02-01T22:09:40.513Z,4.90
2023-02-01T22:12:10.635Z,2.63
2023-02-01T22:14:40.495Z,2.63
2023-02-01T22:17:09.891Z,5.13
2023-02-01T22:19:37.960Z,3.33
2023-02-01T22:22:06.206Z,3.00
2023-02-01T22:24:35.577Z,2.33
2023-02-01T22:27:13.392Z,3.00
2023-02-01T22:29:43.420Z,2.80
2023-02-01T22:32:14.293Z,3.13
2023-02-01T22:34:42.595Z,2.60
2023-02-01T22:37:12.107Z,2.70
2023-02-01T22:39:40.640Z,3.73
2023-02-01T22:42:08.760Z,3.00
2023-02-01T22:44:36.856Z,3.33
2023-02-01T22:47:05.130Z,2.97
2023-02-01T22:49:34.592Z,2.97
2023-02-01T22:52:03.007Z,3.00
2023-02-01T22:54:31.627Z,4.97
2023-02-01T22:57:00.296Z,2.67
2023-02-01T22:59:28.541Z,6.93
2023-02-01T23:01:56.912Z,3.07
2023-02-01T23:04:25.446Z,3.77
2023-02-01T23:06:55.464Z,5.57
2023-02-01T23:09:26.048Z,6.50
2023-02-01T23:11:55.642Z,4.03
2023-02-01T23:14:24.185Z,7.27
2023-02-01T23:16:52.567Z,3.70
2023-02-01T23:19:21.554Z,4.77
2023-02-01T23:21:50.261Z,8.23
2023-02-01T23:24:21.247Z,3.30
2023-02-01T23:26:50.249Z,3.50
2023-02-01T23:29:19.719Z,2.87
2023-02-01T23:31:48.618Z,3.97
2023-02-01T23:34:17.228Z,3.40
2023-02-01T23:36:45.619Z,3.03
2023-02-01T23:39:13.896Z,6.97
2023-02-01T23:41:43.529Z,7.47
2023-02-01T23:44:11.373Z,3.70
2023-02-01T23:46:41.676Z,9.43
2023-02-01T23:49:11.593Z,4.03
2023-02-01T23:51:39.927Z,3.97
2023-02-01T23:54:09.312Z,3.90
2023-02-01T23:56:39.420Z,4.13
2023-02-01T23:59:12.879Z,6.40
